• Join FlightAware (Why Join?)
  • Login
  • US Flag 
11:12PM EDT


 

Airport Tracker/Info


-or-


 

Live Flight TrackerFlight Track Log ✈ USC105 ✈ 30-Apr-2013 ✈ KLCK - KBKL

Flight Track Log - Related Links

Times and Time Zones

All times are in EDT time to prevent confusion due to time zone crossing. See the USC105 flight status page for this flight to view local times or setup timezone preferences in your user account.

Time Position Orientation Groundspeed Altitude Reporting Facility
EDT Latitude Longitude Course Direction KTS MPH feet Rate Location/Type
10:08PM 39.8194 -82.9247 46° Northeast 118 136 800  Level Indianapolis Center
10:09PM 39.8378 -82.8997 46° Northeast 118 136 1,600 900 Climbing Indianapolis Center
10:10PM 39.8544 -82.8808 41° Northeast 124 143 2,200 1,020 Climbing Indianapolis Center
10:12PM 39.9228 -82.8439 23° Northeast 131 151 4,500 1,080 Climbing Indianapolis Center
10:12PM 39.9303 -82.8314 52° Northeast 129 148 4,900 1,140 Climbing Indianapolis Center
10:13PM 39.9478 -82.8094 44° Northeast 130 150 5,700 1,080 Climbing Indianapolis Center
10:13PM 39.9556 -82.7989 46° Northeast 124 143 6,000 960 Climbing Indianapolis Center
10:14PM 39.9722 -82.7781 44° Northeast 124 143 6,700 960 Climbing Indianapolis Center
10:14PM 39.9786 -82.7686 49° Northeast 128 147 6,900 180 Climbing Indianapolis Center
10:15PM 39.9989 -82.7372 50° Northeast 146 168 6,900  Level Indianapolis Center
10:15PM 40.0083 -82.7286 35° Northeast 169 194 6,900  Level Indianapolis Center
10:16PM 40.0386 -82.7056 30° Northeast 165 190 6,900  Level Indianapolis Center
10:18PM 40.1256 -82.6472 27° Northeast 177 204 6,900  Level Indianapolis Center
10:18PM 40.1442 -82.6347 27° Northeast 174 200 6,900  Level Indianapolis Center
10:19PM 40.1706 -82.6175 27° Northeast 182 209 6,900  Level Indianapolis Center
10:19PM 40.1925 -82.6017 29° Northeast 185 213 6,900  Level Indianapolis Center
10:20PM 40.2158 -82.5861 27° Northeast 184 212 6,900  Level Indianapolis Center
10:20PM 40.2403 -82.5714 25° Northeast 188 216 6,900  Level Indianapolis Center
10:21PM 40.2639 -82.5528 31° Northeast 187 215 6,900  Level Indianapolis Center
10:22PM 40.3106 -82.5222 27° Northeast 187 215 6,900  Level Indianapolis Center
10:23PM 40.3572 -82.4897 28° Northeast 187 215 6,900  Level Indianapolis Center
10:24PM 40.4042 -82.4578 27° Northeast 188 216 6,900  Level Indianapolis Center
10:25PM 40.4506 -82.4267 27° Northeast 186 214 6,900  Level Indianapolis Center
10:26PM 40.4969 -82.3947 28° Northeast 186 214 6,900  Level Indianapolis Center
10:28PM 40.5523 -82.3568 72° East  Level Estimated
10:32PM 40.7747 -82.2092 23° Northeast 186 214 7,000  Level Cleveland Center
10:33PM 40.8317 -82.1692 28° Northeast 189 217 7,000  Level Cleveland Center
10:34PM 40.8758 -82.1347 31° Northeast 188 216 7,000  Level Cleveland Center
10:35PM 40.7250 -82.0990 22° Northeast  Level FlightAware Approximate
10:35PM 40.9306 -82.1003 25° Northeast 189 217 7,000  Level Cleveland Center
10:36PM 40.7663 -82.0769 22° Northeast  Level FlightAware Approximate
10:37PM 40.8077 -82.0548 22° Northeast  Level FlightAware Approximate
10:37PM 40.9811 -82.0656 27° Northeast 187 215 7,000  Level Cleveland Center
10:37PM 41.0211 -82.0333 31° Northeast 190 219 7,000  Level Cleveland Center
10:38PM 40.8487 -82.0317 23° Northeast  Level FlightAware Approximate
10:38PM 41.0714 -82.0125 17° North 187 215 7,000  Level Cleveland Center
10:39PM 41.1214 -82.0028 North 186 214 7,000 -240 Level Cleveland Center
10:41PM 41.1803 -81.9764 19° North 191 220 6,600 -480 Descending Cleveland Center
10:42PM 41.2367 -81.9583 14° North 214 246 6,000 -360 Descending Cleveland Center
10:43PM 41.2911 -81.9456 10° North 188 216 5,900 -540 Descending Cleveland Center
10:44PM 41.3433 -81.9244 17° North 201 231 5,000 -900 Descending Cleveland Center
10:45PM 41.4083 -81.9008 15° North 215 247 4,000 -1,020 Descending Cleveland Center
10:46PM 41.4628 -81.8853 12° North 205 236 2,900 -900 Descending Cleveland Center
10:47PM 41.4842 -81.8275 64° Northeast 163 188 2,200 -720 Descending Cleveland Center
10:48PM 41.4931 -81.7697 78° East 132 152 1,500 -540 Descending Cleveland Center
10:49PM 41.5019 -81.7253 75° East 107 123 1,100 -360 Descending Cleveland Center
10:51PM 41.5175 -81.6833 56° Northeast  Level Estimated
10:58PM 41.5175 -81.6833 56° Northeast  Level Estimated
10:59PM 41.5175 -81.6833 56° Northeast  Level Estimated